sensor_id;sensor_type;location;lat;lon;timestamp;P1;durP1;ratioP1;P2;durP2;ratioP2
48114;SDS011;33903;44.704;10.448;2024-03-23T00:56:25;8.57;;;5.40;;
48114;SDS011;33903;44.704;10.448;2024-03-23T00:59:30;8.63;;;5.85;;
48114;SDS011;33903;44.704;10.448;2024-03-23T01:02:35;8.77;;;6.45;;
48114;SDS011;33903;44.704;10.448;2024-03-23T01:05:40;7.32;;;5.25;;
48114;SDS011;33903;44.704;10.448;2024-03-23T01:08:44;7.95;;;5.40;;
48114;SDS011;33903;44.704;10.448;2024-03-23T01:11:49;9.85;;;5.50;;
48114;SDS011;33903;44.704;10.448;2024-03-23T01:14:54;8.18;;;5.50;;
48114;SDS011;33903;44.704;10.448;2024-03-23T01:17:58;9.05;;;5.80;;
48114;SDS011;33903;44.704;10.448;2024-03-23T01:21:04;8.65;;;5.78;;
48114;SDS011;33903;44.704;10.448;2024-03-23T01:24:08;6.82;;;4.93;;
48114;SDS011;33903;44.704;10.448;2024-03-23T01:27:14;7.40;;;5.47;;
48114;SDS011;33903;44.704;10.448;2024-03-23T01:30:19;7.60;;;5.10;;
48114;SDS011;33903;44.704;10.448;2024-03-23T01:33:24;10.07;;;5.75;;
48114;SDS011;33903;44.704;10.448;2024-03-23T01:36:28;10.00;;;5.60;;
48114;SDS011;33903;44.704;10.448;2024-03-23T01:39:33;9.05;;;5.03;;
48114;SDS011;33903;44.704;10.448;2024-03-23T01:42:37;9.90;;;5.00;;
48114;SDS011;33903;44.704;10.448;2024-03-23T01:45:42;7.15;;;5.70;;
48114;SDS011;33903;44.704;10.448;2024-03-23T01:48:46;6.50;;;4.88;;
48114;SDS011;33903;44.704;10.448;2024-03-23T01:51:51;8.48;;;5.47;;
48114;SDS011;33903;44.704;10.448;2024-03-23T01:54:55;7.40;;;4.72;;
48114;SDS011;33903;44.704;10.448;2024-03-23T01:58:00;7.43;;;5.25;;
48114;SDS011;33903;44.704;10.448;2024-03-23T02:01:05;8.32;;;5.53;;
48114;SDS011;33903;44.704;10.448;2024-03-23T02:04:11;6.78;;;4.95;;
48114;SDS011;33903;44.704;10.448;2024-03-23T02:07:17;10.52;;;5.25;;
48114;SDS011;33903;44.704;10.448;2024-03-23T02:10:21;8.27;;;5.13;;
48114;SDS011;33903;44.704;10.448;2024-03-23T02:13:26;11.10;;;5.50;;
48114;SDS011;33903;44.704;10.448;2024-03-23T02:16:30;7.38;;;4.97;;
48114;SDS011;33903;44.704;10.448;2024-03-23T02:19:35;20.23;;;10.43;;
48114;SDS011;33903;44.704;10.448;2024-03-23T02:22:40;10.65;;;7.00;;
48114;SDS011;33903;44.704;10.448;2024-03-23T02:25:44;15.95;;;9.13;;
48114;SDS011;33903;44.704;10.448;2024-03-23T02:28:49;16.17;;;7.47;;
48114;SDS011;33903;44.704;10.448;2024-03-23T02:31:53;16.27;;;8.55;;
48114;SDS011;33903;44.704;10.448;2024-03-23T02:34:58;8.73;;;6.20;;
48114;SDS011;33903;44.704;10.448;2024-03-23T02:38:02;9.18;;;5.78;;
48114;SDS011;33903;44.704;10.448;2024-03-23T02:41:07;9.35;;;6.50;;
48114;SDS011;33903;44.704;10.448;2024-03-23T02:44:11;10.90;;;6.18;;
48114;SDS011;33903;44.704;10.448;2024-03-23T02:47:15;8.07;;;5.00;;
48114;SDS011;33903;44.704;10.448;2024-03-23T02:50:19;7.85;;;5.50;;
48114;SDS011;33903;44.704;10.448;2024-03-23T02:53:24;8.30;;;5.50;;
48114;SDS011;33903;44.704;10.448;2024-03-23T02:56:28;8.27;;;5.65;;
48114;SDS011;33903;44.704;10.448;2024-03-23T02:59:33;10.48;;;5.20;;
48114;SDS011;33903;44.704;10.448;2024-03-23T03:02:36;9.32;;;5.80;;
48114;SDS011;33903;44.704;10.448;2024-03-23T03:05:41;11.02;;;5.82;;
48114;SDS011;33903;44.704;10.448;2024-03-23T03:08:46;10.30;;;6.32;;
48114;SDS011;33903;44.704;10.448;2024-03-23T03:11:51;7.32;;;5.20;;
48114;SDS011;33903;44.704;10.448;2024-03-23T03:14:55;9.35;;;5.32;;
48114;SDS011;33903;44.704;10.448;2024-03-23T03:17:59;7.38;;;5.32;;
48114;SDS011;33903;44.704;10.448;2024-03-23T03:21:04;8.27;;;5.90;;
48114;SDS011;33903;44.704;10.448;2024-03-23T03:24:21;8.52;;;5.05;;
48114;SDS011;33903;44.704;10.448;2024-03-23T03:27:26;7.68;;;5.65;;
48114;SDS011;33903;44.704;10.448;2024-03-23T03:30:30;9.10;;;5.95;;
48114;SDS011;33903;44.704;10.448;2024-03-23T03:33:35;10.55;;;4.85;;
48114;SDS011;33903;44.704;10.448;2024-03-23T03:36:39;7.88;;;5.00;;
48114;SDS011;33903;44.704;10.448;2024-03-23T03:39:44;7.25;;;5.00;;
48114;SDS011;33903;44.704;10.448;2024-03-23T03:42:48;8.95;;;4.72;;
48114;SDS011;33903;44.704;10.448;2024-03-23T03:45:53;7.10;;;4.95;;
48114;SDS011;33903;44.704;10.448;2024-03-23T03:48:58;8.63;;;4.68;;
48114;SDS011;33903;44.704;10.448;2024-03-23T03:52:02;7.82;;;4.45;;
48114;SDS011;33903;44.704;10.448;2024-03-23T03:55:12;7.30;;;4.40;;
48114;SDS011;33903;44.704;10.448;2024-03-23T03:58:18;7.50;;;4.68;;
48114;SDS011;33903;44.704;10.448;2024-03-23T04:01:23;6.55;;;4.05;;
48114;SDS011;33903;44.704;10.448;2024-03-23T04:04:27;10.63;;;4.57;;
48114;SDS011;33903;44.704;10.448;2024-03-23T04:07:31;6.55;;;4.40;;
48114;SDS011;33903;44.704;10.448;2024-03-23T04:10:36;6.50;;;4.40;;
48114;SDS011;33903;44.704;10.448;2024-03-23T04:13:40;8.50;;;4.32;;
48114;SDS011;33903;44.704;10.448;2024-03-23T04:16:45;8.65;;;4.80;;
48114;SDS011;33903;44.704;10.448;2024-03-23T04:19:50;8.23;;;4.43;;
48114;SDS011;33903;44.704;10.448;2024-03-23T04:22:56;9.30;;;5.00;;
48114;SDS011;33903;44.704;10.448;2024-03-23T04:26:03;9.02;;;5.00;;
48114;SDS011;33903;44.704;10.448;2024-03-23T04:29:09;4.93;;;3.30;;
48114;SDS011;33903;44.704;10.448;2024-03-23T04:32:17;7.15;;;3.95;;
48114;SDS011;33903;44.704;10.448;2024-03-23T04:35:21;5.97;;;3.75;;
48114;SDS011;33903;44.704;10.448;2024-03-23T04:38:29;5.68;;;4.00;;
48114;SDS011;33903;44.704;10.448;2024-03-23T04:41:34;7.38;;;4.13;;
48114;SDS011;33903;44.704;10.448;2024-03-23T04:44:39;7.90;;;4.78;;
48114;SDS011;33903;44.704;10.448;2024-03-23T04:47:43;7.65;;;4.32;;
48114;SDS011;33903;44.704;10.448;2024-03-23T04:50:48;8.23;;;4.50;;
48114;SDS011;33903;44.704;10.448;2024-03-23T04:53:53;7.93;;;4.20;;
48114;SDS011;33903;44.704;10.448;2024-03-23T04:56:58;10.63;;;5.07;;
48114;SDS011;33903;44.704;10.448;2024-03-23T05:00:03;8.38;;;5.13;;
48114;SDS011;33903;44.704;10.448;2024-03-23T05:03:16;8.25;;;4.93;;
48114;SDS011;33903;44.704;10.448;2024-03-23T05:06:21;6.60;;;4.50;;
48114;SDS011;33903;44.704;10.448;2024-03-23T05:09:25;6.20;;;5.22;;
48114;SDS011;33903;44.704;10.448;2024-03-23T05:12:34;9.57;;;4.85;;
48114;SDS011;33903;44.704;10.448;2024-03-23T05:15:38;7.28;;;4.88;;
48114;SDS011;33903;44.704;10.448;2024-03-23T05:18:43;6.47;;;4.43;;
48114;SDS011;33903;44.704;10.448;2024-03-23T05:21:48;8.35;;;4.88;;
48114;SDS011;33903;44.704;10.448;2024-03-23T05:24:52;7.13;;;4.88;;
48114;SDS011;33903;44.704;10.448;2024-03-23T05:27:57;7.43;;;4.53;;
48114;SDS011;33903;44.704;10.448;2024-03-23T05:31:01;12.02;;;4.90;;
48114;SDS011;33903;44.704;10.448;2024-03-23T05:34:06;9.98;;;5.15;;
48114;SDS011;33903;44.704;10.448;2024-03-23T05:37:11;7.30;;;4.65;;
48114;SDS011;33903;44.704;10.448;2024-03-23T05:40:15;7.57;;;4.55;;
48114;SDS011;33903;44.704;10.448;2024-03-23T05:43:20;7.90;;;4.05;;
48114;SDS011;33903;44.704;10.448;2024-03-23T05:46:25;6.88;;;4.40;;
48114;SDS011;33903;44.704;10.448;2024-03-23T05:49:29;5.70;;;3.67;;
48114;SDS011;33903;44.704;10.448;2024-03-23T05:52:34;6.63;;;4.22;;
48114;SDS011;33903;44.704;10.448;2024-03-23T05:55:38;8.15;;;4.28;;
48114;SDS011;33903;44.704;10.448;2024-03-23T05:58:42;7.57;;;4.25;;
48114;SDS011;33903;44.704;10.448;2024-03-23T06:01:47;9.55;;;3.97;;
48114;SDS011;33903;44.704;10.448;2024-03-23T06:04:52;8.82;;;3.88;;
48114;SDS011;33903;44.704;10.448;2024-03-23T06:07:56;7.60;;;3.60;;
48114;SDS011;33903;44.704;10.448;2024-03-23T06:11:01;6.70;;;4.65;;
48114;SDS011;33903;44.704;10.448;2024-03-23T06:14:05;11.50;;;7.05;;
48114;SDS011;33903;44.704;10.448;2024-03-23T06:17:10;15.30;;;9.18;;
48114;SDS011;33903;44.704;10.448;2024-03-23T06:20:14;15.05;;;9.98;;
48114;SDS011;33903;44.704;10.448;2024-03-23T06:23:19;12.63;;;8.73;;
48114;SDS011;33903;44.704;10.448;2024-03-23T06:26:23;8.40;;;6.32;;
48114;SDS011;33903;44.704;10.448;2024-03-23T06:29:28;7.47;;;5.40;;
48114;SDS011;33903;44.704;10.448;2024-03-23T06:32:32;7.45;;;4.70;;
48114;SDS011;33903;44.704;10.448;2024-03-23T06:35:37;9.30;;;4.65;;
48114;SDS011;33903;44.704;10.448;2024-03-23T06:38:41;8.82;;;4.68;;
48114;SDS011;33903;44.704;10.448;2024-03-23T06:41:51;9.10;;;4.75;;
48114;SDS011;33903;44.704;10.448;2024-03-23T06:44:57;18.33;;;7.10;;
48114;SDS011;33903;44.704;10.448;2024-03-23T06:48:01;50.63;;;18.92;;
48114;SDS011;33903;44.704;10.448;2024-03-23T06:51:07;77.70;;;34.97;;
48114;SDS011;33903;44.704;10.448;2024-03-23T06:54:13;64.60;;;31.52;;
48114;SDS011;33903;44.704;10.448;2024-03-23T06:57:17;65.45;;;30.20;;
48114;SDS011;33903;44.704;10.448;2024-03-23T07:00:23;46.40;;;22.55;;
48114;SDS011;33903;44.704;10.448;2024-03-23T07:03:29;56.15;;;24.80;;
48114;SDS011;33903;44.704;10.448;2024-03-23T07:06:33;64.60;;;30.95;;
48114;SDS011;33903;44.704;10.448;2024-03-23T07:09:38;65.88;;;31.52;;
48114;SDS011;33903;44.704;10.448;2024-03-23T07:12:43;52.20;;;26.73;;
48114;SDS011;33903;44.704;10.448;2024-03-23T07:15:52;53.63;;;24.05;;
48114;SDS011;33903;44.704;10.448;2024-03-23T07:18:57;48.03;;;23.17;;
48114;SDS011;33903;44.704;10.448;2024-03-23T07:22:02;44.88;;;21.67;;
48114;SDS011;33903;44.704;10.448;2024-03-23T07:25:16;42.17;;;20.38;;
48114;SDS011;33903;44.704;10.448;2024-03-23T07:31:26;36.30;;;17.35;;
48114;SDS011;33903;44.704;10.448;2024-03-23T07:34:30;36.05;;;15.90;;
48114;SDS011;33903;44.704;10.448;2024-03-23T07:37:35;39.33;;;19.08;;
48114;SDS011;33903;44.704;10.448;2024-03-23T07:40:40;39.78;;;17.92;;
48114;SDS011;33903;44.704;10.448;2024-03-23T07:43:46;33.90;;;17.83;;
48114;SDS011;33903;44.704;10.448;2024-03-23T07:46:51;39.30;;;17.67;;
48114;SDS011;33903;44.704;10.448;2024-03-23T07:49:56;30.45;;;15.05;;
48114;SDS011;33903;44.704;10.448;2024-03-23T07:53:00;28.40;;;15.35;;
48114;SDS011;33903;44.704;10.448;2024-03-23T07:56:06;27.65;;;13.90;;
48114;SDS011;33903;44.704;10.448;2024-03-23T07:59:12;24.48;;;13.45;;
48114;SDS011;33903;44.704;10.448;2024-03-23T08:02:16;22.95;;;13.05;;
48114;SDS011;33903;44.704;10.448;2024-03-23T08:05:21;31.73;;;15.75;;
48114;SDS011;33903;44.704;10.448;2024-03-23T08:08:26;30.88;;;15.38;;
48114;SDS011;33903;44.704;10.448;2024-03-23T08:11:32;25.98;;;15.25;;
48114;SDS011;33903;44.704;10.448;2024-03-23T08:14:40;24.80;;;14.48;;
48114;SDS011;33903;44.704;10.448;2024-03-23T08:17:45;28.38;;;14.57;;
48114;SDS011;33903;44.704;10.448;2024-03-23T08:20:56;27.42;;;14.80;;
48114;SDS011;33903;44.704;10.448;2024-03-23T08:24:05;23.48;;;12.60;;
48114;SDS011;33903;44.704;10.448;2024-03-23T08:27:10;16.23;;;11.35;;
48114;SDS011;33903;44.704;10.448;2024-03-23T08:30:14;12.13;;;8.23;;
48114;SDS011;33903;44.704;10.448;2024-03-23T08:33:19;11.35;;;6.57;;
48114;SDS011;33903;44.704;10.448;2024-03-23T08:36:28;8.43;;;5.60;;
48114;SDS011;33903;44.704;10.448;2024-03-23T08:39:33;8.23;;;4.63;;
48114;SDS011;33903;44.704;10.448;2024-03-23T08:42:39;8.98;;;4.85;;
48114;SDS011;33903;44.704;10.448;2024-03-23T08:45:43;6.97;;;3.25;;
48114;SDS011;33903;44.704;10.448;2024-03-23T08:48:47;4.97;;;3.03;;
48114;SDS011;33903;44.704;10.448;2024-03-23T08:51:53;7.30;;;3.05;;
48114;SDS011;33903;44.704;10.448;2024-03-23T08:54:59;4.80;;;2.00;;
48114;SDS011;33903;44.704;10.448;2024-03-23T08:58:04;6.00;;;2.85;;
48114;SDS011;33903;44.704;10.448;2024-03-23T09:01:10;4.68;;;2.65;;
48114;SDS011;33903;44.704;10.448;2024-03-23T09:04:17;3.70;;;2.08;;
48114;SDS011;33903;44.704;10.448;2024-03-23T09:07:21;7.25;;;3.10;;
48114;SDS011;33903;44.704;10.448;2024-03-23T09:10:26;4.20;;;2.92;;
48114;SDS011;33903;44.704;10.448;2024-03-23T09:13:30;7.95;;;3.17;;
48114;SDS011;33903;44.704;10.448;2024-03-23T09:16:34;4.88;;;2.38;;
48114;SDS011;33903;44.704;10.448;2024-03-23T09:19:39;4.32;;;2.63;;
48114;SDS011;33903;44.704;10.448;2024-03-23T09:22:43;5.28;;;2.63;;
48114;SDS011;33903;44.704;10.448;2024-03-23T09:25:48;7.82;;;4.60;;
48114;SDS011;33903;44.704;10.448;2024-03-23T09:28:52;4.65;;;2.30;;
48114;SDS011;33903;44.704;10.448;2024-03-23T09:31:57;4.47;;;1.95;;
48114;SDS011;33903;44.704;10.448;2024-03-23T09:35:01;3.88;;;1.80;;
48114;SDS011;33903;44.704;10.448;2024-03-23T09:38:07;14.10;;;2.30;;
48114;SDS011;33903;44.704;10.448;2024-03-23T09:41:14;5.65;;;1.52;;
48114;SDS011;33903;44.704;10.448;2024-03-23T09:44:19;5.15;;;2.00;;
48114;SDS011;33903;44.704;10.448;2024-03-23T09:47:24;3.47;;;1.48;;
48114;SDS011;33903;44.704;10.448;2024-03-23T09:50:29;4.18;;;1.50;;
48114;SDS011;33903;44.704;10.448;2024-03-23T09:53:34;5.38;;;1.88;;
48114;SDS011;33903;44.704;10.448;2024-03-23T09:56:39;2.70;;;1.40;;
48114;SDS011;33903;44.704;10.448;2024-03-23T09:59:45;4.88;;;1.98;;
48114;SDS011;33903;44.704;10.448;2024-03-23T10:02:49;2.83;;;1.63;;
48114;SDS011;33903;44.704;10.448;2024-03-23T10:06:01;5.50;;;1.80;;
48114;SDS011;33903;44.704;10.448;2024-03-23T10:09:16;5.25;;;1.67;;
48114;SDS011;33903;44.704;10.448;2024-03-23T10:12:24;3.97;;;1.38;;
48114;SDS011;33903;44.704;10.448;2024-03-23T10:15:29;5.38;;;2.10;;
48114;SDS011;33903;44.704;10.448;2024-03-23T10:18:38;5.47;;;3.50;;
48114;SDS011;33903;44.704;10.448;2024-03-23T10:21:52;10.25;;;6.82;;
48114;SDS011;33903;44.704;10.448;2024-03-23T10:24:57;14.98;;;9.85;;
48114;SDS011;33903;44.704;10.448;2024-03-23T10:28:12;17.73;;;11.40;;
48114;SDS011;33903;44.704;10.448;2024-03-23T10:31:17;16.45;;;10.93;;
48114;SDS011;33903;44.704;10.448;2024-03-23T10:34:25;13.40;;;9.32;;
48114;SDS011;33903;44.704;10.448;2024-03-23T10:37:32;14.60;;;10.18;;
48114;SDS011;33903;44.704;10.448;2024-03-23T10:40:37;17.20;;;11.50;;
48114;SDS011;33903;44.704;10.448;2024-03-23T10:43:47;17.85;;;13.60;;
48114;SDS011;33903;44.704;10.448;2024-03-23T10:46:55;21.45;;;13.02;;
48114;SDS011;33903;44.704;10.448;2024-03-23T10:50:03;19.83;;;13.48;;
48114;SDS011;33903;44.704;10.448;2024-03-23T10:53:11;25.20;;;16.33;;
48114;SDS011;33903;44.704;10.448;2024-03-23T10:56:18;21.35;;;14.93;;
48114;SDS011;33903;44.704;10.448;2024-03-23T10:59:24;24.85;;;15.25;;
48114;SDS011;33903;44.704;10.448;2024-03-23T11:02:29;22.90;;;14.98;;
48114;SDS011;33903;44.704;10.448;2024-03-23T11:05:34;19.63;;;12.70;;
48114;SDS011;33903;44.704;10.448;2024-03-23T11:08:40;17.63;;;12.18;;
48114;SDS011;33903;44.704;10.448;2024-03-23T11:11:49;14.32;;;7.75;;
48114;SDS011;33903;44.704;10.448;2024-03-23T11:14:55;10.77;;;7.22;;
48114;SDS011;33903;44.704;10.448;2024-03-23T11:18:03;11.85;;;6.95;;
48114;SDS011;33903;44.704;10.448;2024-03-23T11:21:10;13.15;;;7.90;;
48114;SDS011;33903;44.704;10.448;2024-03-23T11:24:14;14.05;;;7.75;;
48114;SDS011;33903;44.704;10.448;2024-03-23T11:27:21;9.98;;;6.13;;
48114;SDS011;33903;44.704;10.448;2024-03-23T11:30:26;7.78;;;2.30;;
48114;SDS011;33903;44.704;10.448;2024-03-23T11:33:35;4.78;;;1.73;;
48114;SDS011;33903;44.704;10.448;2024-03-23T11:36:39;7.15;;;2.50;;
48114;SDS011;33903;44.704;10.448;2024-03-23T11:39:44;6.82;;;1.92;;
48114;SDS011;33903;44.704;10.448;2024-03-23T11:42:55;5.68;;;1.80;;
48114;SDS011;33903;44.704;10.448;2024-03-23T11:46:00;5.65;;;1.52;;
48114;SDS011;33903;44.704;10.448;2024-03-23T11:49:19;6.07;;;1.80;;
48114;SDS011;33903;44.704;10.448;2024-03-23T11:52:26;5.65;;;1.90;;
48114;SDS011;33903;44.704;10.448;2024-03-23T11:55:31;5.32;;;1.45;;
48114;SDS011;33903;44.704;10.448;2024-03-23T11:58:46;4.93;;;1.52;;
48114;SDS011;33903;44.704;10.448;2024-03-23T12:01:53;4.03;;;1.55;;
48114;SDS011;33903;44.704;10.448;2024-03-23T12:04:57;7.05;;;2.20;;
48114;SDS011;33903;44.704;10.448;2024-03-23T12:11:29;3.85;;;1.42;;
48114;SDS011;33903;44.704;10.448;2024-03-23T12:14:33;4.00;;;1.75;;
48114;SDS011;33903;44.704;10.448;2024-03-23T12:17:38;6.82;;;2.22;;
48114;SDS011;33903;44.704;10.448;2024-03-23T12:20:42;6.40;;;1.75;;
48114;SDS011;33903;44.704;10.448;2024-03-23T12:23:47;4.38;;;1.58;;
48114;SDS011;33903;44.704;10.448;2024-03-23T12:26:52;5.53;;;1.45;;
48114;SDS011;33903;44.704;10.448;2024-03-23T12:29:57;3.63;;;1.52;;
48114;SDS011;33903;44.704;10.448;2024-03-23T12:33:02;4.15;;;1.90;;
48114;SDS011;33903;44.704;10.448;2024-03-23T12:36:07;5.20;;;1.80;;
48114;SDS011;33903;44.704;10.448;2024-03-23T12:39:11;6.07;;;1.90;;
48114;SDS011;33903;44.704;10.448;2024-03-23T12:42:16;5.00;;;1.83;;
48114;SDS011;33903;44.704;10.448;2024-03-23T12:45:21;5.30;;;1.60;;
48114;SDS011;33903;44.704;10.448;2024-03-23T12:48:26;3.75;;;1.50;;
48114;SDS011;33903;44.704;10.448;2024-03-23T12:51:30;4.35;;;1.73;;
48114;SDS011;33903;44.704;10.448;2024-03-23T12:54:37;4.82;;;2.25;;
48114;SDS011;33903;44.704;10.448;2024-03-23T12:57:41;6.85;;;1.63;;
48114;SDS011;33903;44.704;10.448;2024-03-23T13:00:45;6.15;;;1.35;;
48114;SDS011;33903;44.704;10.448;2024-03-23T13:03:50;8.07;;;1.70;;
48114;SDS011;33903;44.704;10.448;2024-03-23T13:06:55;6.75;;;1.20;;
48114;SDS011;33903;44.704;10.448;2024-03-23T13:09:59;3.10;;;1.13;;
48114;SDS011;33903;44.704;10.448;2024-03-23T13:13:04;3.00;;;1.23;;
48114;SDS011;33903;44.704;10.448;2024-03-23T13:16:08;3.78;;;1.20;;
48114;SDS011;33903;44.704;10.448;2024-03-23T13:19:13;2.72;;;0.95;;
48114;SDS011;33903;44.704;10.448;2024-03-23T13:22:17;5.10;;;2.65;;
48114;SDS011;33903;44.704;10.448;2024-03-23T13:25:22;4.53;;;1.73;;
48114;SDS011;33903;44.704;10.448;2024-03-23T13:28:26;7.75;;;1.20;;
48114;SDS011;33903;44.704;10.448;2024-03-23T13:31:31;2.63;;;0.95;;
48114;SDS011;33903;44.704;10.448;2024-03-23T13:34:36;2.95;;;1.25;;
48114;SDS011;33903;44.704;10.448;2024-03-23T13:37:40;5.97;;;1.30;;
48114;SDS011;33903;44.704;10.448;2024-03-23T13:40:55;5.25;;;0.82;;
48114;SDS011;33903;44.704;10.448;2024-03-23T13:44:01;2.92;;;0.90;;
48114;SDS011;33903;44.704;10.448;2024-03-23T13:47:05;3.58;;;0.90;;
48114;SDS011;33903;44.704;10.448;2024-03-23T13:50:10;3.17;;;1.05;;
48114;SDS011;33903;44.704;10.448;2024-03-23T13:53:15;3.65;;;1.10;;
48114;SDS011;33903;44.704;10.448;2024-03-23T13:56:19;10.45;;;1.33;;
48114;SDS011;33903;44.704;10.448;2024-03-23T13:59:23;3.58;;;1.38;;
48114;SDS011;33903;44.704;10.448;2024-03-23T14:02:28;6.40;;;1.45;;
48114;SDS011;33903;44.704;10.448;2024-03-23T14:05:33;7.90;;;2.60;;
48114;SDS011;33903;44.704;10.448;2024-03-23T14:13:11;6.07;;;1.40;;
48114;SDS011;33903;44.704;10.448;2024-03-23T14:16:15;5.88;;;1.70;;
48114;SDS011;33903;44.704;10.448;2024-03-23T14:19:20;8.88;;;2.40;;
48114;SDS011;33903;44.704;10.448;2024-03-23T14:22:25;6.63;;;1.52;;
48114;SDS011;33903;44.704;10.448;2024-03-23T14:25:34;5.00;;;1.60;;
48114;SDS011;33903;44.704;10.448;2024-03-23T14:28:41;14.18;;;2.40;;
48114;SDS011;33903;44.704;10.448;2024-03-23T14:31:55;4.85;;;1.20;;
48114;SDS011;33903;44.704;10.448;2024-03-23T14:35:06;5.05;;;1.20;;
48114;SDS011;33903;44.704;10.448;2024-03-23T14:38:20;6.18;;;1.05;;
48114;SDS011;33903;44.704;10.448;2024-03-23T14:41:25;7.00;;;1.33;;
48114;SDS011;33903;44.704;10.448;2024-03-23T14:44:30;6.78;;;1.02;;
48114;SDS011;33903;44.704;10.448;2024-03-23T14:47:35;8.65;;;2.90;;
48114;SDS011;33903;44.704;10.448;2024-03-23T14:50:39;7.55;;;2.97;;
48114;SDS011;33903;44.704;10.448;2024-03-23T14:53:45;7.38;;;2.08;;
48114;SDS011;33903;44.704;10.448;2024-03-23T14:56:51;7.60;;;2.00;;
48114;SDS011;33903;44.704;10.448;2024-03-23T14:59:58;2.25;;;0.90;;
48114;SDS011;33903;44.704;10.448;2024-03-23T15:03:03;4.45;;;1.38;;
48114;SDS011;33903;44.704;10.448;2024-03-23T15:06:08;5.93;;;1.23;;
48114;SDS011;33903;44.704;10.448;2024-03-23T15:09:16;3.25;;;1.50;;
48114;SDS011;33903;44.704;10.448;2024-03-23T15:12:26;3.53;;;1.10;;
48114;SDS011;33903;44.704;10.448;2024-03-23T15:15:31;6.10;;;1.30;;
48114;SDS011;33903;44.704;10.448;2024-03-23T15:18:43;8.13;;;1.67;;
48114;SDS011;33903;44.704;10.448;2024-03-23T15:21:59;3.65;;;0.93;;
48114;SDS011;33903;44.704;10.448;2024-03-23T15:25:04;3.58;;;0.93;;
48114;SDS011;33903;44.704;10.448;2024-03-23T15:28:09;4.65;;;1.10;;
48114;SDS011;33903;44.704;10.448;2024-03-23T15:31:14;4.07;;;0.90;;
48114;SDS011;33903;44.704;10.448;2024-03-23T15:34:22;8.27;;;1.25;;
48114;SDS011;33903;44.704;10.448;2024-03-23T15:37:26;4.97;;;1.05;;
48114;SDS011;33903;44.704;10.448;2024-03-23T15:40:34;7.93;;;1.20;;
48114;SDS011;33903;44.704;10.448;2024-03-23T15:43:39;6.63;;;1.27;;
48114;SDS011;33903;44.704;10.448;2024-03-23T15:46:44;6.03;;;1.17;;
48114;SDS011;33903;44.704;10.448;2024-03-23T15:49:49;6.13;;;1.38;;
48114;SDS011;33903;44.704;10.448;2024-03-23T15:52:57;7.80;;;1.48;;
48114;SDS011;33903;44.704;10.448;2024-03-23T15:56:02;8.63;;;1.20;;
48114;SDS011;33903;44.704;10.448;2024-03-23T15:59:07;4.35;;;1.10;;
48114;SDS011;33903;44.704;10.448;2024-03-23T16:02:12;9.52;;;1.60;;
48114;SDS011;33903;44.704;10.448;2024-03-23T16:05:17;8.02;;;2.00;;
48114;SDS011;33903;44.704;10.448;2024-03-23T16:08:22;6.38;;;1.40;;
48114;SDS011;33903;44.704;10.448;2024-03-23T16:11:27;3.45;;;1.17;;
48114;SDS011;33903;44.704;10.448;2024-03-23T16:14:32;8.27;;;1.77;;
48114;SDS011;33903;44.704;10.448;2024-03-23T16:17:36;6.00;;;1.33;;
48114;SDS011;33903;44.704;10.448;2024-03-23T16:20:42;6.60;;;1.30;;
48114;SDS011;33903;44.704;10.448;2024-03-23T16:23:46;7.03;;;1.58;;
48114;SDS011;33903;44.704;10.448;2024-03-23T16:26:51;7.05;;;1.25;;
48114;SDS011;33903;44.704;10.448;2024-03-23T16:29:55;8.55;;;1.23;;
48114;SDS011;33903;44.704;10.448;2024-03-23T16:33:00;5.15;;;1.70;;
48114;SDS011;33903;44.704;10.448;2024-03-23T16:36:05;10.77;;;2.22;;
48114;SDS011;33903;44.704;10.448;2024-03-23T16:39:13;2.85;;;1.20;;
48114;SDS011;33903;44.704;10.448;2024-03-23T16:42:19;4.35;;;1.30;;
48114;SDS011;33903;44.704;10.448;2024-03-23T16:45:24;4.85;;;1.45;;
48114;SDS011;33903;44.704;10.448;2024-03-23T16:48:28;5.05;;;1.55;;
48114;SDS011;33903;44.704;10.448;2024-03-23T16:51:34;5.07;;;1.60;;
48114;SDS011;33903;44.704;10.448;2024-03-23T16:54:38;6.50;;;1.30;;
48114;SDS011;33903;44.704;10.448;2024-03-23T16:57:43;6.10;;;1.85;;
48114;SDS011;33903;44.704;10.448;2024-03-23T17:00:47;3.80;;;1.25;;
48114;SDS011;33903;44.704;10.448;2024-03-23T17:03:53;8.35;;;1.90;;
48114;SDS011;33903;44.704;10.448;2024-03-23T17:06:57;3.47;;;1.50;;
48114;SDS011;33903;44.704;10.448;2024-03-23T17:10:02;5.55;;;2.10;;
48114;SDS011;33903;44.704;10.448;2024-03-23T17:13:06;5.10;;;1.50;;
48114;SDS011;33903;44.704;10.448;2024-03-23T17:16:11;6.95;;;1.70;;
48114;SDS011;33903;44.704;10.448;2024-03-23T17:19:17;4.40;;;1.52;;
48114;SDS011;33903;44.704;10.448;2024-03-23T17:22:21;8.95;;;1.85;;
48114;SDS011;33903;44.704;10.448;2024-03-23T17:25:26;6.13;;;1.85;;
48114;SDS011;33903;44.704;10.448;2024-03-23T17:28:30;18.20;;;7.80;;
48114;SDS011;33903;44.704;10.448;2024-03-23T17:31:35;6.78;;;3.42;;
48114;SDS011;33903;44.704;10.448;2024-03-23T17:34:40;9.43;;;4.63;;
48114;SDS011;33903;44.704;10.448;2024-03-23T17:37:45;8.38;;;2.60;;
48114;SDS011;33903;44.704;10.448;2024-03-23T17:40:55;7.47;;;3.58;;
48114;SDS011;33903;44.704;10.448;2024-03-23T17:44:00;4.97;;;1.77;;
48114;SDS011;33903;44.704;10.448;2024-03-23T17:47:04;5.88;;;2.00;;
48114;SDS011;33903;44.704;10.448;2024-03-23T17:50:09;5.07;;;2.58;;
48114;SDS011;33903;44.704;10.448;2024-03-23T17:53:13;8.55;;;2.20;;
48114;SDS011;33903;44.704;10.448;2024-03-23T17:56:18;8.18;;;3.03;;
48114;SDS011;33903;44.704;10.448;2024-03-23T17:59:22;9.82;;;2.40;;
48114;SDS011;33903;44.704;10.448;2024-03-23T18:02:27;8.02;;;2.05;;
48114;SDS011;33903;44.704;10.448;2024-03-23T18:05:32;8.27;;;2.40;;
48114;SDS011;33903;44.704;10.448;2024-03-23T18:08:40;10.45;;;2.75;;
48114;SDS011;33903;44.704;10.448;2024-03-23T18:11:45;13.57;;;2.90;;
48114;SDS011;33903;44.704;10.448;2024-03-23T18:14:50;5.47;;;1.92;;
48114;SDS011;33903;44.704;10.448;2024-03-23T18:17:55;6.85;;;2.08;;
48114;SDS011;33903;44.704;10.448;2024-03-23T18:21:00;7.03;;;2.22;;
48114;SDS011;33903;44.704;10.448;2024-03-23T18:24:05;5.88;;;2.20;;
48114;SDS011;33903;44.704;10.448;2024-03-23T18:27:09;8.60;;;2.60;;
48114;SDS011;33903;44.704;10.448;2024-03-23T18:30:17;5.78;;;2.42;;
48114;SDS011;33903;44.704;10.448;2024-03-23T18:33:21;10.50;;;3.50;;
48114;SDS011;33903;44.704;10.448;2024-03-23T18:36:29;5.90;;;2.92;;
48114;SDS011;33903;44.704;10.448;2024-03-23T18:39:35;7.75;;;2.80;;
48114;SDS011;33903;44.704;10.448;2024-03-23T18:42:39;9.38;;;2.50;;
48114;SDS011;33903;44.704;10.448;2024-03-23T18:45:47;9.38;;;2.85;;
48114;SDS011;33903;44.704;10.448;2024-03-23T18:48:58;8.63;;;3.00;;
48114;SDS011;33903;44.704;10.448;2024-03-23T18:52:04;8.65;;;3.20;;
48114;SDS011;33903;44.704;10.448;2024-03-23T18:55:08;8.93;;;2.55;;
48114;SDS011;33903;44.704;10.448;2024-03-23T18:58:13;7.25;;;2.58;;
48114;SDS011;33903;44.704;10.448;2024-03-23T19:01:18;7.63;;;2.70;;
48114;SDS011;33903;44.704;10.448;2024-03-23T19:04:24;8.10;;;2.50;;
48114;SDS011;33903;44.704;10.448;2024-03-23T19:07:29;7.78;;;2.30;;
48114;SDS011;33903;44.704;10.448;2024-03-23T19:10:34;9.55;;;2.38;;
48114;SDS011;33903;44.704;10.448;2024-03-23T19:13:38;6.35;;;2.97;;
48114;SDS011;33903;44.704;10.448;2024-03-23T19:16:43;7.93;;;2.55;;
48114;SDS011;33903;44.704;10.448;2024-03-23T19:19:50;10.27;;;2.60;;
48114;SDS011;33903;44.704;10.448;2024-03-23T19:22:54;7.18;;;2.70;;